createdAt,value
2018-01-27T00:01:06.950Z,7.40
2018-01-27T00:03:33.314Z,7.30
2018-01-27T00:05:59.344Z,7.30
2018-01-27T00:08:27.101Z,7.30
2018-01-27T00:10:54.001Z,7.30
2018-01-27T00:13:20.169Z,7.30
2018-01-27T00:15:48.453Z,7.30
2018-01-27T00:18:15.053Z,7.40
2018-01-27T00:20:42.057Z,7.50
2018-01-27T00:23:08.063Z,7.60
2018-01-27T00:25:35.263Z,7.60
2018-01-27T00:28:02.107Z,7.60
2018-01-27T00:30:28.276Z,7.50
2018-01-27T00:32:55.696Z,7.40
2018-01-27T00:35:24.394Z,7.50
2018-01-27T00:37:51.896Z,7.50
2018-01-27T00:40:21.075Z,7.40
2018-01-27T00:42:47.201Z,7.30
2018-01-27T00:45:16.903Z,7.40
2018-01-27T00:47:42.983Z,7.40
2018-01-27T00:50:09.029Z,7.40
2018-01-27T00:52:35.226Z,7.30
2018-01-27T00:55:02.124Z,7.20
2018-01-27T00:57:28.424Z,7.30
2018-01-27T00:59:54.438Z,7.30
2018-01-27T01:02:21.283Z,7.30
2018-01-27T01:04:48.244Z,7.30
2018-01-27T01:07:15.808Z,7.30
2018-01-27T01:09:42.763Z,7.20
2018-01-27T01:12:08.785Z,7.30
2018-01-27T01:14:35.025Z,7.30
2018-01-27T01:17:02.788Z,7.20
2018-01-27T01:19:30.408Z,7.20
2018-01-27T01:21:57.387Z,7.20
2018-01-27T01:24:24.745Z,7.20
2018-01-27T01:26:51.595Z,7.20
2018-01-27T01:29:17.671Z,7.20
2018-01-27T01:31:44.735Z,7.20
2018-01-27T01:34:13.369Z,7.20
2018-01-27T01:36:40.556Z,7.30
2018-01-27T01:39:07.344Z,7.20
2018-01-27T01:41:33.446Z,7.00
2018-01-27T01:44:21.752Z,7.10
2018-01-27T01:46:47.816Z,7.10
2018-01-27T01:49:22.851Z,7.10
2018-01-27T01:51:49.815Z,7.10
2018-01-27T01:54:17.448Z,7.00
2018-01-27T01:56:43.473Z,6.90
2018-01-27T01:59:10.429Z,7.10
2018-01-27T02:01:36.645Z,7.10
2018-01-27T02:04:04.241Z,7.10
2018-01-27T02:06:30.276Z,7.10
2018-01-27T02:08:56.856Z,6.80
2018-01-27T02:11:22.818Z,7.00
2018-01-27T02:13:48.922Z,6.80
2018-01-27T02:16:14.898Z,6.80
2018-01-27T02:18:40.893Z,6.80
2018-01-27T02:21:08.400Z,6.60
2018-01-27T02:23:35.304Z,6.70
2018-01-27T02:26:02.916Z,6.70
2018-01-27T02:28:28.884Z,6.70
2018-01-27T02:30:56.286Z,6.60
2018-01-27T02:33:25.407Z,6.70
2018-01-27T02:35:52.992Z,6.60
2018-01-27T02:38:19.038Z,6.60
2018-01-27T02:40:45.091Z,6.60
2018-01-27T02:43:12.101Z,6.60
2018-01-27T02:45:39.580Z,6.60
2018-01-27T02:48:07.157Z,6.60
2018-01-27T02:50:34.115Z,6.70
2018-01-27T02:53:00.476Z,6.50
2018-01-27T02:55:27.658Z,6.40
2018-01-27T02:57:54.064Z,6.40
2018-01-27T03:00:20.118Z,6.30
2018-01-27T03:02:46.854Z,6.20
2018-01-27T03:05:13.934Z,6.20
2018-01-27T03:07:39.951Z,6.20
2018-01-27T03:10:07.266Z,6.10
2018-01-27T03:12:34.438Z,6.10
2018-01-27T03:17:32.237Z,6.10
2018-01-27T03:19:58.934Z,6.10
2018-01-27T03:22:24.980Z,6.10
2018-01-27T03:24:51.255Z,6.10
2018-01-27T03:27:17.395Z,5.90
2018-01-27T03:29:46.742Z,6.00
2018-01-27T03:32:14.074Z,5.90
2018-01-27T03:34:40.031Z,6.00
2018-01-27T03:37:07.572Z,5.90
2018-01-27T03:39:34.731Z,5.80
2018-01-27T03:42:00.918Z,5.80
2018-01-27T03:44:28.782Z,5.80
2018-01-27T03:46:55.352Z,5.80
2018-01-27T03:49:21.398Z,5.70
2018-01-27T03:51:48.122Z,5.50
2018-01-27T03:54:14.175Z,5.50
2018-01-27T03:56:40.315Z,5.50
2018-01-27T03:59:07.092Z,5.50
2018-01-27T04:01:36.208Z,5.60
2018-01-27T04:04:02.456Z,5.60
2018-01-27T04:06:29.001Z,5.50
2018-01-27T04:08:55.537Z,5.50
2018-01-27T04:11:21.868Z,5.40
2018-01-27T04:13:47.862Z,5.50
2018-01-27T04:16:14.793Z,5.40
2018-01-27T04:18:42.314Z,5.40
2018-01-27T04:21:08.409Z,5.50
2018-01-27T04:23:34.335Z,5.50
2018-01-27T04:26:00.871Z,5.50
2018-01-27T04:28:28.196Z,5.50
2018-01-27T04:30:55.184Z,5.50
2018-01-27T04:33:21.830Z,5.50
2018-01-27T04:35:48.414Z,5.50
2018-01-27T04:38:16.022Z,5.50
2018-01-27T04:40:41.994Z,5.40
2018-01-27T04:43:10.769Z,5.50
2018-01-27T04:45:36.738Z,5.40
2018-01-27T04:48:03.138Z,5.30
2018-01-27T04:50:30.552Z,5.30
2018-01-27T04:52:57.337Z,5.20
2018-01-27T04:55:25.108Z,5.30
2018-01-27T04:57:51.318Z,5.20
2018-01-27T05:00:17.299Z,5.20
2018-01-27T05:02:44.209Z,5.20
2018-01-27T05:05:11.734Z,5.10
2018-01-27T05:07:37.702Z,5.00
2018-01-27T05:10:03.830Z,5.00
2018-01-27T05:12:30.882Z,4.90
2018-01-27T05:14:58.729Z,4.90
2018-01-27T05:17:25.271Z,4.60
2018-01-27T05:19:52.892Z,4.70
2018-01-27T05:22:20.497Z,4.70
2018-01-27T05:24:46.524Z,4.60
2018-01-27T05:27:12.868Z,4.50
2018-01-27T05:29:40.574Z,4.70
2018-01-27T05:32:08.607Z,4.70
2018-01-27T05:34:36.458Z,4.60
2018-01-27T05:37:04.071Z,4.50
2018-01-27T05:39:30.039Z,4.50
2018-01-27T05:41:56.066Z,4.50
2018-01-27T05:44:24.443Z,4.60
2018-01-27T05:46:51.869Z,4.50
2018-01-27T05:49:21.311Z,4.50
2018-01-27T05:51:47.314Z,4.50
2018-01-27T05:54:14.090Z,4.40
2018-01-27T05:56:40.114Z,4.40
2018-01-27T05:59:07.930Z,4.30
2018-01-27T06:01:38.083Z,4.20
2018-01-27T06:04:04.917Z,4.30
2018-01-27T06:06:31.007Z,4.20
2018-01-27T06:08:57.291Z,4.20
2018-01-27T06:11:24.701Z,4.30
2018-01-27T06:13:50.730Z,4.30
2018-01-27T06:16:16.784Z,4.30
2018-01-27T06:18:42.806Z,4.30
2018-01-27T06:21:09.652Z,4.20
2018-01-27T06:23:36.466Z,4.40
2018-01-27T06:26:04.875Z,4.30
2018-01-27T06:28:31.571Z,4.30
2018-01-27T06:30:59.765Z,4.30
2018-01-27T06:33:28.940Z,4.40
2018-01-27T06:35:56.459Z,4.40
2018-01-27T06:38:24.500Z,4.20
2018-01-27T06:40:50.540Z,4.30
2018-01-27T06:43:16.556Z,4.30
2018-01-27T06:45:42.567Z,4.20
2018-01-27T06:48:09.501Z,4.20
2018-01-27T06:50:36.271Z,4.20
2018-01-27T06:53:03.126Z,4.20
2018-01-27T06:55:32.107Z,4.30
2018-01-27T06:57:59.099Z,4.30
2018-01-27T07:00:31.054Z,4.50
2018-01-27T07:02:57.499Z,4.40
2018-01-27T07:05:25.154Z,4.30
2018-01-27T07:07:52.448Z,4.30
2018-01-27T07:10:19.821Z,4.30
2018-01-27T07:12:46.927Z,4.20
2018-01-27T07:15:13.763Z,4.20
2018-01-27T07:17:39.716Z,3.90
2018-01-27T07:20:07.793Z,3.80
2018-01-27T07:22:34.651Z,3.90
2018-01-27T07:25:03.081Z,3.70
2018-01-27T07:27:32.904Z,3.70
2018-01-27T07:29:59.218Z,3.70
2018-01-27T07:32:25.229Z,3.90
2018-01-27T07:34:52.379Z,3.90
2018-01-27T07:37:18.335Z,4.00
2018-01-27T07:39:46.941Z,4.00
2018-01-27T07:42:13.781Z,4.20
2018-01-27T07:44:40.779Z,4.20
2018-01-27T07:47:07.634Z,4.10
2018-01-27T07:49:33.689Z,4.10
2018-01-27T07:52:00.198Z,4.20
2018-01-27T07:54:26.780Z,4.40
2018-01-27T07:56:53.358Z,4.50
2018-01-27T07:59:21.901Z,4.60
2018-01-27T08:01:47.871Z,4.50
2018-01-27T08:04:17.985Z,4.20
2018-01-27T08:06:44.042Z,4.10
2018-01-27T08:09:11.459Z,4.20
2018-01-27T08:11:38.142Z,4.30
2018-01-27T08:14:04.072Z,4.20
2018-01-27T08:16:33.259Z,4.30
2018-01-27T08:19:00.299Z,4.40
2018-01-27T08:21:27.147Z,4.30
2018-01-27T08:23:54.117Z,4.40
2018-01-27T08:26:22.167Z,4.40
2018-01-27T08:28:49.032Z,4.40
2018-01-27T08:31:17.240Z,4.30
2018-01-27T08:33:43.179Z,4.30
2018-01-27T08:36:09.906Z,4.30
2018-01-27T08:38:36.747Z,4.30
2018-01-27T08:41:02.960Z,4.20
2018-01-27T08:43:29.426Z,4.20
2018-01-27T08:45:57.065Z,4.30
2018-01-27T08:48:23.171Z,4.30
2018-01-27T08:50:52.361Z,4.50
2018-01-27T08:55:51.314Z,4.30
2018-01-27T08:58:18.962Z,4.30
2018-01-27T09:00:46.078Z,4.30
2018-01-27T09:03:12.699Z,4.40
2018-01-27T09:05:38.725Z,4.50
2018-01-27T09:08:05.052Z,4.60
2018-01-27T09:10:32.721Z,4.60
2018-01-27T09:13:01.365Z,4.40
2018-01-27T09:15:28.383Z,4.50
2018-01-27T09:17:57.004Z,4.40
2018-01-27T09:20:23.862Z,4.50
2018-01-27T09:22:50.692Z,4.70
2018-01-27T09:25:17.525Z,4.70
2018-01-27T09:27:43.534Z,4.60
2018-01-27T09:30:09.771Z,4.50
2018-01-27T09:32:36.116Z,4.60
2018-01-27T09:35:02.168Z,4.80
2018-01-27T09:37:28.416Z,4.80
2018-01-27T09:39:54.722Z,5.00
2018-01-27T09:42:21.644Z,5.10
2018-01-27T09:44:47.648Z,5.00
2018-01-27T09:47:13.845Z,5.20
2018-01-27T09:49:41.415Z,5.30
2018-01-27T09:52:07.865Z,5.30
2018-01-27T09:54:36.624Z,5.20
2018-01-27T09:57:02.939Z,5.10
2018-01-27T09:59:29.003Z,5.10
2018-01-27T10:01:57.561Z,5.30
2018-01-27T10:04:23.530Z,5.40
2018-01-27T10:06:50.273Z,5.40
2018-01-27T10:09:16.975Z,5.30
2018-01-27T10:11:42.950Z,5.40
2018-01-27T10:14:10.514Z,5.40
2018-01-27T10:16:36.607Z,5.40
2018-01-27T10:19:02.863Z,5.40
2018-01-27T10:21:28.856Z,5.30
2018-01-27T10:23:56.561Z,5.30
2018-01-27T10:26:23.297Z,5.40
2018-01-27T10:28:49.311Z,5.40
2018-01-27T10:31:15.341Z,5.40
2018-01-27T10:33:42.131Z,5.70
2018-01-27T10:36:08.063Z,5.60
2018-01-27T10:38:34.743Z,5.70
2018-01-27T10:41:00.650Z,5.70
2018-01-27T10:43:26.661Z,5.80
2018-01-27T10:45:52.648Z,5.80
2018-01-27T10:48:19.267Z,5.80
2018-01-27T10:50:45.797Z,5.80
2018-01-27T10:53:11.890Z,5.80
2018-01-27T10:55:37.835Z,5.60
2018-01-27T10:58:05.266Z,5.70
2018-01-27T11:00:31.263Z,5.70
2018-01-27T11:02:58.168Z,5.70
2018-01-27T11:05:26.183Z,5.50
2018-01-27T11:07:52.304Z,5.70
2018-01-27T11:10:21.924Z,6.00
2018-01-27T11:12:49.415Z,6.00
2018-01-27T11:15:15.409Z,6.00
2018-01-27T11:17:42.567Z,6.00
2018-01-27T11:20:08.585Z,6.10
2018-01-27T11:22:34.679Z,5.90
2018-01-27T11:25:00.956Z,6.00
2018-01-27T11:27:28.080Z,6.00
2018-01-27T11:29:54.979Z,5.80
2018-01-27T11:32:21.284Z,5.90
2018-01-27T11:34:47.667Z,5.90
2018-01-27T11:37:14.583Z,6.00
2018-01-27T11:39:40.961Z,5.90
2018-01-27T11:42:09.883Z,6.00
2018-01-27T11:44:35.940Z,6.00
2018-01-27T11:47:02.036Z,6.10
2018-01-27T11:49:28.101Z,6.10
2018-01-27T11:51:54.151Z,6.00
2018-01-27T11:54:20.162Z,6.00
2018-01-27T11:56:46.191Z,6.00
2018-01-27T11:59:13.615Z,6.20
2018-01-27T12:01:41.183Z,6.10
2018-01-27T12:04:07.898Z,6.10
2018-01-27T12:06:34.506Z,6.00
2018-01-27T12:09:00.527Z,6.00
2018-01-27T12:11:26.571Z,6.00
2018-01-27T12:13:53.919Z,5.90
2018-01-27T12:16:22.719Z,6.00
2018-01-27T12:18:49.679Z,5.80
2018-01-27T12:21:17.664Z,6.00
2018-01-27T12:23:44.577Z,6.00
2018-01-27T12:26:11.138Z,6.10
2018-01-27T12:28:37.361Z,6.10
2018-01-27T12:31:09.100Z,6.10
2018-01-27T12:33:41.071Z,6.10
2018-01-27T12:36:07.375Z,6.10
2018-01-27T12:38:38.339Z,6.10
2018-01-27T12:41:04.565Z,6.10
2018-01-27T12:43:35.551Z,6.00
2018-01-27T12:46:03.828Z,5.90
2018-01-27T12:48:30.064Z,6.00
2018-01-27T12:50:57.830Z,6.00
2018-01-27T12:53:25.402Z,6.10
2018-01-27T12:55:51.412Z,6.10
2018-01-27T12:58:18.880Z,6.10
2018-01-27T13:00:45.238Z,6.10
2018-01-27T13:03:12.416Z,6.10
2018-01-27T13:05:39.510Z,6.10
2018-01-27T13:08:05.576Z,6.10
2018-01-27T13:10:31.586Z,6.10
2018-01-27T13:12:57.525Z,6.10
2018-01-27T13:15:25.090Z,6.30
2018-01-27T13:17:51.301Z,6.30
2018-01-27T13:20:17.298Z,6.30
2018-01-27T13:22:43.268Z,6.30
2018-01-27T13:25:09.875Z,6.20
2018-01-27T13:27:36.918Z,6.10
2018-01-27T13:30:03.527Z,6.20
2018-01-27T13:32:29.462Z,6.30
2018-01-27T13:34:57.306Z,6.10
2018-01-27T13:37:24.127Z,6.10
2018-01-27T13:39:51.540Z,6.00
2018-01-27T13:42:18.291Z,6.10
2018-01-27T13:44:44.529Z,6.00
2018-01-27T13:47:10.529Z,6.00
2018-01-27T13:49:37.477Z,6.00
2018-01-27T13:52:03.979Z,5.80
2018-01-27T13:54:30.577Z,5.90
2018-01-27T13:56:58.009Z,5.90
2018-01-27T13:59:25.486Z,5.80
2018-01-27T14:01:53.286Z,5.80
2018-01-27T14:04:19.231Z,5.90
2018-01-27T14:06:46.467Z,5.90
2018-01-27T14:09:13.931Z,6.00
2018-01-27T14:11:40.646Z,6.00
2018-01-27T14:14:06.584Z,6.00
2018-01-27T14:16:33.372Z,6.00
2018-01-27T14:19:01.816Z,5.80
2018-01-27T14:21:27.926Z,5.80
2018-01-27T14:23:54.631Z,5.70
2018-01-27T14:26:22.367Z,5.70
2018-01-27T14:28:49.014Z,5.50
2018-01-27T14:31:15.683Z,5.40
2018-01-27T14:33:42.619Z,5.40
2018-01-27T14:36:08.630Z,5.50
2018-01-27T14:38:34.627Z,5.60
2018-01-27T14:41:01.263Z,5.70
2018-01-27T14:43:27.827Z,5.70
2018-01-27T14:45:54.773Z,5.70
2018-01-27T14:48:20.809Z,5.80
2018-01-27T14:50:46.826Z,5.70
2018-01-27T14:53:14.073Z,5.70
2018-01-27T14:55:40.038Z,5.70
2018-01-27T14:58:06.952Z,5.70
2018-01-27T15:00:33.946Z,5.70
2018-01-27T15:03:00.742Z,5.80
2018-01-27T15:05:26.779Z,5.70
2018-01-27T15:07:52.777Z,5.70
2018-01-27T15:10:19.395Z,5.70
2018-01-27T15:12:45.743Z,5.60
2018-01-27T15:15:12.060Z,5.60
2018-01-27T15:17:38.742Z,5.50
2018-01-27T15:20:04.807Z,5.40
2018-01-27T15:22:31.462Z,5.50
2018-01-27T15:24:57.443Z,5.50
2018-01-27T15:27:23.421Z,5.40
2018-01-27T15:29:50.529Z,5.30
2018-01-27T15:32:16.459Z,5.30
2018-01-27T15:34:42.470Z,5.30
2018-01-27T15:37:10.819Z,5.30
2018-01-27T15:39:37.586Z,5.30
2018-01-27T15:42:04.351Z,5.40
2018-01-27T15:44:31.154Z,5.40
2018-01-27T15:46:57.203Z,5.40
2018-01-27T15:49:23.227Z,5.30
2018-01-27T15:51:49.254Z,5.20
2018-01-27T15:54:15.246Z,5.10
2018-01-27T15:56:42.227Z,5.30
2018-01-27T15:59:08.877Z,5.20
2018-01-27T16:01:35.898Z,5.30
2018-01-27T16:04:01.895Z,5.40
2018-01-27T16:06:28.399Z,5.20
2018-01-27T16:08:55.139Z,5.20
2018-01-27T16:11:21.141Z,5.20
2018-01-27T16:13:47.115Z,5.20
2018-01-27T16:16:14.615Z,5.20
2018-01-27T16:18:41.676Z,5.20
2018-01-27T16:21:07.772Z,5.10
2018-01-27T16:23:33.706Z,5.10
2018-01-27T16:26:00.591Z,4.90
2018-01-27T16:28:26.542Z,4.80
2018-01-27T16:30:53.311Z,4.60
2018-01-27T16:33:19.762Z,4.60
2018-01-27T16:35:45.749Z,4.60
2018-01-27T16:38:12.605Z,4.60
2018-01-27T16:40:39.206Z,4.50
2018-01-27T16:43:05.312Z,4.50
2018-01-27T16:45:31.265Z,4.50
2018-01-27T16:47:57.363Z,4.50
2018-01-27T16:50:23.372Z,4.40
2018-01-27T16:52:52.215Z,4.50
2018-01-27T16:55:19.359Z,4.30
2018-01-27T16:57:45.341Z,4.30
2018-01-27T17:00:13.227Z,4.20
2018-01-27T17:02:39.206Z,4.20
2018-01-27T17:05:05.173Z,4.30
2018-01-27T17:07:31.990Z,4.20
2018-01-27T17:09:58.279Z,4.10
2018-01-27T17:12:24.295Z,4.20
2018-01-27T17:14:50.452Z,4.30
2018-01-27T17:17:16.387Z,4.20
2018-01-27T17:19:43.329Z,4.20
2018-01-27T17:22:09.924Z,4.10
2018-01-27T17:24:35.892Z,4.10
2018-01-27T17:27:01.832Z,4.10
2018-01-27T17:29:30.099Z,4.10
2018-01-27T17:31:56.911Z,4.10
2018-01-27T17:34:22.935Z,4.00
2018-01-27T17:36:48.966Z,4.00
2018-01-27T17:39:15.012Z,4.00
2018-01-27T17:41:42.604Z,4.10
2018-01-27T17:44:08.651Z,3.90
2018-01-27T17:46:34.600Z,4.20
2018-01-27T17:49:02.058Z,4.20
2018-01-27T17:51:28.070Z,4.20
2018-01-27T17:53:56.099Z,4.20
2018-01-27T17:56:22.911Z,4.20
2018-01-27T17:58:48.990Z,4.20
2018-01-27T18:01:15.873Z,4.30
2018-01-27T18:03:42.397Z,4.30
2018-01-27T18:06:11.346Z,4.40
2018-01-27T18:08:37.325Z,4.50
2018-01-27T18:11:03.344Z,4.50
2018-01-27T18:13:29.951Z,4.60
2018-01-27T18:15:56.656Z,4.60
2018-01-27T18:18:24.041Z,4.60
2018-01-27T18:20:52.265Z,4.50
2018-01-27T18:23:18.509Z,4.60
2018-01-27T18:25:44.718Z,4.60
2018-01-27T18:28:12.277Z,4.60
2018-01-27T18:30:39.178Z,4.60
2018-01-27T18:33:05.217Z,4.60
2018-01-27T18:35:32.115Z,4.60
2018-01-27T18:37:58.471Z,4.60
2018-01-27T18:40:25.088Z,4.50
2018-01-27T18:42:53.073Z,4.60
2018-01-27T18:45:20.075Z,4.70
2018-01-27T18:47:46.090Z,4.70
2018-01-27T18:50:12.156Z,4.70
2018-01-27T18:52:38.190Z,4.70
2018-01-27T18:55:04.169Z,4.80
2018-01-27T18:57:32.010Z,4.80
2018-01-27T18:59:58.987Z,4.90
2018-01-27T19:02:26.034Z,4.90
2018-01-27T19:04:52.256Z,4.80
2018-01-27T19:07:20.179Z,5.00
2018-01-27T19:09:47.652Z,5.00
2018-01-27T19:12:13.814Z,5.00
2018-01-27T19:14:39.874Z,4.90
2018-01-27T19:17:05.860Z,5.10
2018-01-27T19:19:31.867Z,5.10
2018-01-27T19:22:00.599Z,5.10
2018-01-27T19:24:27.708Z,5.10
2018-01-27T19:26:54.090Z,5.10
2018-01-27T19:29:20.796Z,5.20
2018-01-27T19:31:46.787Z,5.10
2018-01-27T19:34:12.716Z,5.20
2018-01-27T19:36:40.477Z,5.10
2018-01-27T19:39:06.905Z,5.20
2018-01-27T19:41:32.921Z,5.20
2018-01-27T19:43:59.540Z,5.20
2018-01-27T19:46:25.487Z,5.30
2018-01-27T19:48:52.585Z,5.20
2018-01-27T19:51:18.567Z,5.30
2018-01-27T19:53:44.626Z,5.30
2018-01-27T19:56:10.604Z,5.30
2018-01-27T19:58:36.621Z,5.30
2018-01-27T20:01:02.681Z,5.30
2018-01-27T20:03:28.738Z,5.30
2018-01-27T20:05:55.336Z,5.30
2018-01-27T20:08:21.380Z,5.30
2018-01-27T20:10:47.534Z,5.20
2018-01-27T20:13:13.678Z,5.30
2018-01-27T20:15:39.670Z,5.30
2018-01-27T20:18:05.911Z,5.20
2018-01-27T20:20:31.906Z,5.40
2018-01-27T20:22:58.084Z,5.40
2018-01-27T20:25:24.831Z,5.30
2018-01-27T20:27:51.534Z,5.30
2018-01-27T20:30:18.500Z,5.40
2018-01-27T20:32:44.494Z,5.20
2018-01-27T20:35:10.465Z,5.40
2018-01-27T20:37:36.601Z,5.40
2018-01-27T20:40:02.629Z,5.40
2018-01-27T20:42:29.126Z,5.40
2018-01-27T20:44:55.424Z,5.40
2018-01-27T20:47:21.795Z,5.30
2018-01-27T20:49:49.007Z,5.20
2018-01-27T20:52:15.874Z,5.20
2018-01-27T20:54:41.852Z,5.20
2018-01-27T20:57:07.824Z,5.20
2018-01-27T20:59:33.848Z,5.20
2018-01-27T21:01:59.886Z,5.20
2018-01-27T21:04:25.914Z,5.30
2018-01-27T21:06:52.115Z,5.30
2018-01-27T21:09:18.151Z,5.20
2018-01-27T21:11:46.249Z,5.30
2018-01-27T21:14:13.046Z,5.30
2018-01-27T21:16:41.719Z,5.20
2018-01-27T21:19:11.147Z,5.30
2018-01-27T21:21:41.240Z,5.10
2018-01-27T21:24:07.530Z,5.30
2018-01-27T21:26:33.567Z,5.30
2018-01-27T21:28:59.478Z,5.30
2018-01-27T21:31:25.712Z,5.30
2018-01-27T21:33:51.693Z,5.30
2018-01-27T21:36:19.290Z,5.40
2018-01-27T21:38:45.272Z,5.20
2018-01-27T21:41:11.851Z,5.40
2018-01-27T21:43:38.795Z,5.60
2018-01-27T21:46:06.547Z,5.50
2018-01-27T21:48:32.513Z,5.50
2018-01-27T21:50:59.129Z,5.50
2018-01-27T21:53:25.992Z,5.50
2018-01-27T21:55:52.673Z,5.50
2018-01-27T21:58:19.385Z,5.50
2018-01-27T22:00:45.986Z,5.60
2018-01-27T22:03:11.952Z,5.60
2018-01-27T22:05:38.471Z,5.70
2018-01-27T22:08:04.418Z,5.50
2018-01-27T22:10:30.511Z,5.60
2018-01-27T22:12:56.664Z,5.70
2018-01-27T22:15:23.393Z,5.60
2018-01-27T22:17:49.379Z,5.60
2018-01-27T22:20:16.137Z,5.60
2018-01-27T22:22:42.179Z,5.60
2018-01-27T22:25:08.172Z,5.70
2018-01-27T22:27:35.602Z,5.60
2018-01-27T22:30:01.620Z,5.60
2018-01-27T22:32:31.395Z,5.70
2018-01-27T22:34:58.194Z,5.60
2018-01-27T22:37:24.967Z,5.60
2018-01-27T22:39:50.929Z,5.60
2018-01-27T22:42:17.264Z,5.60
2018-01-27T22:44:43.288Z,5.70
2018-01-27T22:47:10.825Z,5.70
2018-01-27T22:49:42.332Z,5.60
2018-01-27T22:52:08.380Z,5.70
2018-01-27T22:54:34.452Z,5.60
2018-01-27T22:57:00.419Z,5.70
2018-01-27T22:59:26.363Z,5.70
2018-01-27T23:01:52.598Z,5.60
2018-01-27T23:04:19.454Z,5.70
2018-01-27T23:06:47.253Z,5.80
2018-01-27T23:09:15.390Z,5.70
2018-01-27T23:11:41.438Z,5.70
2018-01-27T23:14:07.474Z,5.70
2018-01-27T23:16:35.679Z,5.70
2018-01-27T23:19:02.857Z,5.70
2018-01-27T23:21:28.859Z,5.70
2018-01-27T23:23:54.799Z,5.70
2018-01-27T23:26:20.944Z,5.70
2018-01-27T23:28:47.015Z,5.70
2018-01-27T23:31:13.810Z,5.70
2018-01-27T23:33:41.178Z,5.60
2018-01-27T23:36:08.740Z,5.70
2018-01-27T23:38:35.527Z,5.70
2018-01-27T23:41:02.147Z,5.70
2018-01-27T23:43:28.429Z,5.70
2018-01-27T23:45:55.392Z,5.80
2018-01-27T23:48:22.865Z,5.80
2018-01-27T23:50:48.956Z,5.70
2018-01-27T23:53:15.782Z,5.80
2018-01-27T23:55:44.701Z,5.80
2018-01-27T23:58:10.779Z,5.80
